This is the latest recevied weather packets stored in our database for station/object N1LJK-13. If no packets are shown the sender has not sent any weather packets the latest 10 day(s).
| Time | Temp. | Humidity | Pressure | Rain* | Wind** | Luminosity | Snow |
|---|---|---|---|---|---|---|---|
| 1777868731 | 1.67° C | 98% | 1009.6 hPa | 0 mm | - | - | - |
| 1777867531 | 2.22° C | 98% | 1009.4 hPa | 0 mm | - | - | - |
| 1777865131 | 3.33° C | 98% | 1009.2 hPa | 0 mm | - | - | - |
| 1777863931 | 3.89° C | 98% | 1009.1 hPa | 0 mm | - | - | - |
| 1777862731 | 3.89° C | 98% | 1008.9 hPa | 0 mm | - | - | - |
| 1777861531 | 5° C | 98% | 1008.7 hPa | 0 mm | - | - | - |
| 1777860331 | 5.56° C | 98% | 1008.5 hPa | 0 mm | - | - | - |
| 1777859131 | 5° C | 98% | 1008.5 hPa | 0 mm | - | - | - |
| 1777857931 | 5.56° C | 98% | 1008.2 hPa | 0 mm | - | - | - |
| 1777856731 | 6.11° C | 98% | 1007.8 hPa | 0 mm | - | - | - |
| 1777854331 | 7.22° C | 98% | 1007.1 hPa | 0 mm | - | - | - |
| 1777853131 | 7.78° C | 98% | 1006.7 hPa | 0 mm | - | - | - |
| 1777850731 | 8.89° C | 98% | 1006 hPa | 0 mm | - | - | - |
| 1777849531 | 8.89° C | 98% | 1005.6 hPa | 0 mm | - | - | - |
| 1777848331 | 8.89° C | 98% | 1005.3 hPa | 0 mm | - | - | - |
| 1777847131 | 9.44° C | 98% | 1004.9 hPa | 0 mm | - | - | - |
| 1777845931 | 9.44° C | 98% | 1004.8 hPa | 0 mm | - | - | - |
| 1777844736 | 10° C | 98% | 1004.8 hPa | 0 mm | - | - | - |
| 1777843531 | 10° C | 98% | 1004.8 hPa | 0 mm | - | - | - |
| 1777842331 | 10° C | 98% | 1005 hPa | 0 mm | - | - | - |
| 1777841131 | 9.44° C | 98% | 1005 hPa | 0 mm | - | - | - |
| 1777839931 | 10° C | 98% | 1005.1 hPa | 0 mm | - | - | - |
| 1777838731 | 10° C | 98% | 1005.3 hPa | 0 mm | - | - | - |
| 1777837531 | 9.44° C | 98% | 1005.5 hPa | 0 mm | - | - | - |
| 1777836331 | 9.44° C | 98% | 1005.6 hPa | 0 mm | - | - | - |
* Rain latest hour (hover to see other rain measurements)
** Current wind speed in m/s (hover to see current wind gust speed)